Time;durP1;ratioP1;P1;durP2;ratioP2;P2;SDS_P1;SDS_P2;PMS_P1;PMS_P2;Temp;Humidity;BMP_temperature;BMP_pressure;BME280_temperature;BME280_humidity;BME280_pressure;Samples;Min_cycle;Max_cycle;Signal;HPM_P1;HPM_P2
2023/11/10 00:01:45;;;;;;;13.20;6.60;;;;;;;9.68;92.90;99405.69;223337;1265;139602;-81
2023/11/10 00:07:46;;;;;;;13.90;7.20;;;;;;;9.65;93.61;99399.58;224006;1265;138724;-82
2023/11/10 00:13:46;;;;;;;14.20;7.10;;;;;;;9.59;94.92;99396.61;223947;1266;138093;-82
2023/11/10 00:19:47;;;;;;;13.80;7.20;;;;;;;9.52;95.90;99391.13;223474;1265;139518;-82
2023/11/10 00:25:49;;;;;;;14.90;8.60;;;;;;;9.45;97.14;99388.70;224096;1265;138178;-83
2023/11/10 00:37:52;;;;;;;15.40;8.50;;;;;;;9.32;98.79;99363.21;223901;1265;138191;-83
2023/11/10 00:49:16;;;;;;;14.40;7.60;;;;;;;9.20;100.00;99370.98;223527;1266;139744;-84
2023/11/10 00:55:16;;;;;;;16.10;8.10;;;;;;;9.15;100.00;99355.30;224003;1268;138493;-83
2023/11/10 01:01:15;;;;;;;15.60;8.10;;;;;;;9.12;100.00;99346.44;223490;1266;139979;-83
2023/11/10 01:07:16;;;;;;;11.90;7.20;;;;;;;9.08;100.00;99346.84;223982;1266;138481;-83
2023/11/10 01:12:58;;;;;;;15.80;7.90;;;;;;;9.05;100.00;99340.95;223705;1265;221130;-84
2023/11/10 01:18:57;;;;;;;15.00;7.20;;;;;;;9.03;100.00;99337.73;223492;1266;139405;-82
2023/11/10 01:24:51;;;;;;;12.10;6.80;;;;;;;9.03;100.00;99327.47;224002;1266;139036;-82
2023/11/10 01:30:52;;;;;;;16.40;7.30;;;;;;;9.01;100.00;99323.86;223436;1266;139749;-82
2023/11/10 01:36:45;;;;;;;14.10;7.60;;;;;;;9.00;100.00;99314.14;223949;1266;139142;-82
2023/11/10 01:42:47;;;;;;;13.20;7.20;;;;;;;9.00;100.00;99306.77;223345;1268;139561;-82
2023/11/10 01:48:38;;;;;;;14.80;7.70;;;;;;;9.01;100.00;99302.54;223468;1266;139988;-82
2023/11/10 01:54:38;;;;;;;;;;;;;;;;;;;;;
2023/11/10 02:00:38;;;;;;;16.90;8.20;;;;;;;9.00;100.00;99299.17;223442;1266;139814;-83
2023/11/10 02:12:41;;;;;;;19.40;9.20;;;;;;;9.05;100.00;99288.42;223450;1265;139204;-82
2023/11/10 02:18:42;;;;;;;18.40;9.40;;;;;;;9.07;100.00;99286.07;223431;1266;139858;-83
2023/11/10 02:24:27;;;;;;;14.30;7.50;;;;;;;9.10;100.00;99281.13;223896;1265;138616;-82
2023/11/10 02:30:28;;;;;;;16.30;6.90;;;;;;;9.11;100.00;99264.73;223450;1268;139863;-81
2023/11/10 02:42:30;;;;;;;16.20;7.80;;;;;;;9.14;100.00;99262.69;223316;1266;139481;-82
2023/11/10 02:48:31;;;;;;;15.40;7.50;;;;;;;9.15;100.00;99258.13;223313;1267;139934;-82
2023/11/10 02:54:23;;;;;;;11.60;6.80;;;;;;;9.18;100.00;99265.75;223868;1266;138574;-83
2023/11/10 03:00:25;;;;;;;15.10;7.40;;;;;;;9.20;100.00;99257.67;223413;1266;139849;-83
2023/11/10 03:06:25;;;;;;;11.80;6.70;;;;;;;9.23;100.00;99255.61;224107;1266;139091;-83
2023/11/10 03:24:28;;;;;;;11.00;6.00;;;;;;;9.28;100.00;99243.75;223940;1268;139098;-82
2023/11/10 03:30:30;;;;;;;12.80;7.00;;;;;;;9.29;100.00;99245.80;223350;1268;139677;-82
2023/11/10 03:36:31;;;;;;;12.40;6.30;;;;;;;9.28;100.00;99241.88;223907;1265;139074;-83
2023/11/10 03:42:32;;;;;;;12.60;6.70;;;;;;;9.26;100.00;99238.42;223457;1266;139820;-83
2023/11/10 03:48:20;;;;;;;13.20;6.60;;;;;;;9.22;100.00;99240.80;223315;1268;139334;-84
2023/11/10 03:54:21;;;;;;;13.80;6.10;;;;;;;9.17;100.00;99245.66;223957;1268;139889;-83
2023/11/10 04:00:22;;;;;;;11.30;6.70;;;;;;;9.12;100.00;99244.02;223458;1266;140229;-83
2023/11/10 04:06:23;;;;;;;16.40;7.00;;;;;;;9.05;100.00;99235.89;223869;1268;138973;-83
2023/11/10 04:12:26;;;;;;;11.30;5.90;;;;;;;8.98;100.00;99231.99;223380;1267;139336;-83
2023/11/10 04:18:27;;;;;;;14.50;7.50;;;;;;;8.92;100.00;99230.82;223346;1267;140324;-83
2023/11/10 04:24:27;;;;;;;13.70;6.60;;;;;;;8.88;100.00;99230.68;223912;1267;138496;-83
2023/11/10 04:36:22;;;;;;;12.40;6.20;;;;;;;8.76;100.00;99225.90;223842;1264;138388;-82
2023/11/10 04:42:24;;;;;;;14.30;6.80;;;;;;;8.72;100.00;99216.96;223486;1267;139919;-82
2023/11/10 04:48:28;;;;;;;12.00;5.60;;;;;;;8.67;100.00;99216.42;223406;1267;139511;-82
2023/11/10 04:54:26;;;;;;;17.60;8.10;;;;;;;8.64;100.00;99212.04;224028;1265;139136;-83
2023/11/10 05:00:27;;;;;;;12.90;6.60;;;;;;;8.60;100.00;99215.81;223425;1267;139658;-82
2023/11/10 05:06:05;;;;;;;12.30;6.40;;;;;;;8.56;100.00;99217.06;223882;1267;139174;-83
2023/11/10 05:12:06;;;;;;;13.50;6.50;;;;;;;8.53;100.00;99206.81;223437;1266;139488;-82
2023/11/10 05:18:07;;;;;;;12.60;6.80;;;;;;;8.49;100.00;99199.20;223463;1267;139570;-82
2023/11/10 05:24:10;;;;;;;14.30;6.90;;;;;;;8.46;100.00;99193.41;223888;1265;138639;-83
2023/11/10 05:30:10;;;;;;;13.90;6.60;;;;;;;8.44;100.00;99197.64;223358;1267;139799;-83
2023/11/10 05:35:53;;;;;;;;;;;;;;;;;;;;;
2023/11/10 05:41:33;;;;;;;;;;;;;;;;;;;;;
2023/11/10 05:47:42;;;;;;;15.40;7.30;;;;;;;8.21;100.00;99194.34;223996;1266;138537;-82
2023/11/10 05:53:42;;;;;;;13.20;7.20;;;;;;;8.13;100.00;99196.88;223957;1266;138493;-83
2023/11/10 05:59:45;;;;;;;14.50;7.50;;;;;;;8.03;100.00;99200.87;223411;1265;140121;-83
2023/11/10 06:05:35;;;;;;;14.60;7.60;;;;;;;7.97;100.00;99209.00;223949;1265;138423;-82
2023/11/10 06:11:36;;;;;;;13.30;8.20;;;;;;;7.88;100.00;99204.84;223442;1265;140498;-83
2023/11/10 06:17:19;;;;;;;19.50;8.80;;;;;;;7.78;100.00;99224.38;223970;1264;138682;-83
2023/11/10 06:23:17;;;;;;;17.60;8.80;;;;;;;7.71;100.00;99232.48;223902;1265;139322;-83
2023/11/10 06:28:58;;;;;;;;;;;;;;;7.65;100.00;99234.04;223441;1265;139856;-83
2023/11/10 06:35:05;;;;;;;17.70;8.00;;;;;;;7.58;100.00;99235.49;223922;1265;125462;-83
2023/11/10 06:40:41;;;;;;;;;;;;;;;;;;;;;
2023/11/10 06:46:36;;;;;;;;;;;;;;;;;;;;;
2023/11/10 06:52:44;;;;;;;17.60;10.20;;;;;;;7.47;100.00;99254.54;223206;1264;139905;-83
2023/11/10 06:58:26;;;;;;;19.60;11.10;;;;;;;7.47;100.00;99252.10;223332;1265;140288;-82
2023/11/10 07:04:19;;;;;;;;;;;;;;;;;;;;;
2023/11/10 07:10:12;;;;;;;20.30;10.40;;;;;;;7.51;100.00;99256.03;223335;1264;140187;-82
2023/11/10 07:16:14;;;;;;;18.80;9.40;;;;;;;7.57;100.00;99247.85;224059;1265;95569;-83
2023/11/10 07:21:51;;;;;;;16.80;8.10;;;;;;;7.66;100.00;99243.75;223365;1265;139946;-81
2023/11/10 07:27:53;;;;;;;13.80;7.50;;;;;;;7.80;100.00;99243.55;224103;1264;95939;-81
2023/11/10 07:33:21;;;;;;;;;;;;;;;;;;;;;
2023/11/10 07:38:55;;;;;;;;;;;;;;;;;;;;;
2023/11/10 07:44:29;;;;;;;;;;;;;;;;;;;;;
2023/11/10 07:50:30;;;;;;;13.20;6.70;;;;;;;8.56;100.00;99242.37;223227;1265;140547;-83
2023/11/10 07:56:12;;;;;;;14.60;6.70;;;;;;;8.71;100.00;99233.43;223725;1264;139069;-82
2023/11/10 08:02:06;;;;;;;;;;;;;;;;;;;;;
2023/11/10 08:08:05;;;;;;;;;;;;;;;;;;;;;
2023/11/10 08:14:07;;;;;;;12.90;5.70;;;;;;;9.01;100.00;99243.74;223883;1265;139059;-82
2023/11/10 08:19:58;;;;;;;;;;;;;;;;;;;;;
2023/11/10 08:31:51;;;;;;;14.90;6.30;;;;;;;9.26;100.00;99233.02;223438;1265;139969;-81
2023/11/10 08:37:35;;;;;;;;;;;;;;;;;;;;;
2023/11/10 08:43:36;;;;;;;14.50;6.80;;;;;;;9.45;100.00;99231.94;223919;1265;243074;-82
2023/11/10 08:49:36;;;;;;;15.70;7.00;;;;;;;9.56;100.00;99236.83;223353;1265;139869;-83
2023/11/10 08:55:37;;;;;;;11.80;6.80;;;;;;;9.68;100.00;99232.15;223983;1265;139428;-82
2023/11/10 09:01:28;;;;;;;;;;;;;;;;;;;;;
2023/11/10 09:07:13;;;;;;;14.20;6.20;;;;;;;10.16;100.00;99231.45;223918;1265;138529;-83
2023/11/10 09:12:53;;;;;;;16.00;6.50;;;;;;;10.33;100.00;99230.39;223595;1265;139519;-82
2023/11/10 09:18:53;;;;;;;12.30;6.00;;;;;;;10.51;100.00;99230.25;223523;1264;140148;-83
2023/11/10 09:24:54;;;;;;;11.90;6.10;;;;;;;10.69;99.86;99227.75;224042;1265;138839;-83
2023/11/10 09:31:20;;;;;;;13.10;6.30;;;;;;;10.87;99.69;99224.13;219297;1265;5364251;-82
2023/11/10 09:36:45;;;;;;;13.50;6.10;;;;;;;11.07;98.87;99220.70;223783;1265;138946;-83
2023/11/10 09:42:46;;;;;;;10.90;5.90;;;;;;;11.19;97.23;99217.66;223506;1265;139750;-84
2023/11/10 09:48:40;;;;;;;10.90;5.40;;;;;;;11.24;95.74;99211.70;223241;1265;140405;-82
2023/11/10 09:54:34;;;;;;;;;;;;;;;;;;;;;
2023/11/10 10:00:44;;;;;;;13.70;6.50;;;;;;;11.34;94.91;99205.45;223450;1265;140439;-83
2023/11/10 10:06:47;;;;;;;12.90;5.70;;;;;;;11.42;94.15;99209.69;223987;1265;138881;-84
2023/11/10 10:12:40;;;;;;;;;;;;;;;;;;;;;
2023/11/10 10:18:27;;;;;;;;;;;;;;;;;;;;;
2023/11/10 10:24:10;;;;;;;14.10;6.40;;;;;;;11.48;93.61;99210.63;224093;1265;138590;-84
2023/11/10 10:30:02;;;;;;;;;;;;;;;;;;;;;
2023/11/10 10:35:46;;;;;;;;;;;;;;;;;;;;;
2023/11/10 10:41:33;;;;;;;;;;;;;;;;;;;;;
2023/11/10 10:47:18;;;;;;;13.00;6.80;;;;;;;11.39;94.40;99203.35;223885;1264;138645;-83
2023/11/10 10:53:20;;;;;;;13.50;6.10;;;;;;;11.40;94.91;99191.52;223777;1265;243509;-84
2023/11/10 10:59:14;;;;;;;13.10;6.40;;;;;;;11.44;94.79;99182.82;223351;1265;140763;-83
2023/11/10 11:05:33;;;;;;;15.40;7.00;;;;;;;11.48;94.60;99186.85;223870;1265;138725;-84
2023/11/10 11:11:23;;;;;;;;;;;;;;;;;;;;;
2023/11/10 11:17:22;;;;;;;;;;;;;;;;;;;;;
2023/11/10 11:23:15;;;;;;;10.50;5.70;;;;;;;11.61;94.99;99168.55;223717;1265;364179;-83
2023/11/10 11:29:16;;;;;;;14.40;6.10;;;;;;;11.65;94.16;99161.79;223440;1265;140225;-84
2023/11/10 11:34:58;;;;;;;12.80;5.70;;;;;;;11.67;94.71;99153.81;223999;1264;139375;-85
2023/11/10 11:40:53;;;;;;;12.00;6.20;;;;;;;11.70;94.58;99157.87;223355;1265;141151;-84
2023/11/10 11:46:48;;;;;;;;;;;;;;;;;;;;;
2023/11/10 11:52:35;;;;;;;;;;;;;;;;;;;;;
2023/11/10 11:58:29;;;;;;;;;;;;;;;;;;;;;
2023/11/10 12:04:15;;;;;;;12.40;6.00;;;;;;;11.71;93.57;99147.84;224127;1264;96202;-84
2023/11/10 12:09:44;;;;;;;12.70;6.00;;;;;;;11.73;93.79;99146.31;223777;1265;140121;-83
2023/11/10 12:15:34;;;;;;;12.50;6.20;;;;;;;11.76;93.61;99154.48;224078;1265;138591;-84
2023/11/10 12:21:10;;;;;;;13.30;6.70;;;;;;;11.76;93.20;99147.15;223435;1265;139827;-81
2023/11/10 12:26:47;;;;;;;;;;;;;;;;;;;;;
2023/11/10 12:32:49;;;;;;;15.50;7.80;;;;;;;11.75;92.46;99154.89;223441;1264;141400;-83
2023/11/10 12:38:22;;;;;;;17.90;7.10;;;;;;;11.75;92.68;99149.20;223433;1264;140520;-83
2023/11/10 12:44:23;;;;;;;12.80;7.60;;;;;;;11.73;92.38;99139.95;223929;1265;138928;-83
2023/11/10 12:50:19;;;;;;;14.70;7.80;;;;;;;11.73;92.59;99134.27;223480;1265;140059;-83
2023/11/10 12:56:08;;;;;;;17.90;8.20;;;;;;;11.71;92.27;99137.46;223882;1265;138909;-84
2023/11/10 13:02:00;;;;;;;;;;;;;;;;;;;;;
2023/11/10 13:07:59;;;;;;;;;;;;;;;;;;;;;
2023/11/10 13:13:43;;;;;;;;;;;;;;;;;;;;;
2023/11/10 13:19:23;;;;;;;;;;;;;;;;;;;;;
2023/11/10 13:25:07;;;;;;;20.10;7.30;;;;;;;11.61;92.77;99129.55;224022;1265;139148;-83
2023/11/10 13:31:07;;;;;;;18.20;8.10;;;;;;;11.62;92.98;99130.96;223442;1265;141173;-83
2023/11/10 13:36:43;;;;;;;13.60;7.30;;;;;;;11.64;93.18;99128.03;223889;1265;138993;-85
2023/11/10 13:42:34;;;;;;;;;;;;;;;;;;;;;
2023/11/10 13:48:28;;;;;;;;;;;;;;;;;;;;;
2023/11/10 13:54:21;;;;;;;;;;;;;;;;;;;;;
2023/11/10 14:00:29;;;;;;;20.20;9.20;;;;;;;11.57;92.94;99126.05;223049;1265;139783;-85
2023/11/10 14:06:30;;;;;;;15.60;7.70;;;;;;;11.54;92.98;99129.23;223892;1266;138762;-84
2023/11/10 14:12:10;;;;;;;;;;;;;;;;;;;;;
2023/11/10 14:18:03;;;;;;;18.10;9.60;;;;;;;11.49;92.87;99139.14;223530;1265;140900;-83
2023/11/10 14:24:05;;;;;;;;;;;;;;;;;;;;;
2023/11/10 14:29:59;;;;;;;18.10;9.20;;;;;;;11.49;93.60;99135.38;223481;1266;141872;-82
2023/11/10 14:35:51;;;;;;;;;;;;;;;;;;;;;
2023/11/10 14:41:34;;;;;;;18.10;8.50;;;;;;;11.44;93.74;99138.10;223300;1266;140160;-83
2023/11/10 14:47:14;;;;;;;20.30;9.30;;;;;;;11.44;93.80;99142.91;224030;1265;139292;-84
2023/11/10 14:53:01;;;;;;;21.80;10.50;;;;;;;11.39;94.30;99141.25;223881;1265;138305;-83
2023/11/10 15:05:02;;;;;;;24.20;13.90;;;;;;;11.32;95.28;99147.23;224046;1265;105749;-83
2023/11/10 15:10:37;;;;;;;;;;;;;;;;;;;;;
2023/11/10 15:16:39;;;;;;;;;;;;;;;;;;;;;
2023/11/10 15:22:18;;;;;;;;;;;;;;;;;;;;;
2023/11/10 15:28:20;;;;;;;16.80;8.50;;;;;;;11.10;95.86;99155.21;223419;1268;140988;-84
2023/11/10 15:34:20;;;;;;;18.20;8.10;;;;;;;11.04;96.14;99164.32;223892;1265;138964;-84
2023/11/10 15:40:12;;;;;;;15.10;8.60;;;;;;;11.00;96.40;99173.81;223389;1266;140761;-84
2023/11/10 15:46:13;;;;;;;16.80;8.90;;;;;;;10.93;96.81;99176.40;223906;1266;138785;-84
2023/11/10 15:52:14;;;;;;;19.30;9.00;;;;;;;10.87;97.12;99175.91;223504;1266;140433;-85
2023/11/10 15:58:05;;;;;;;21.10;12.70;;;;;;;10.83;97.75;99178.79;223563;1265;140395;-84
2023/11/10 16:04:03;;;;;;;19.60;11.20;;;;;;;10.81;98.47;99179.90;224082;1268;138857;-84
2023/11/10 16:09:57;;;;;;;26.60;14.80;;;;;;;10.76;98.78;99181.76;223543;1265;140304;-84
2023/11/10 16:15:58;;;;;;;24.60;13.10;;;;;;;10.71;99.68;99186.67;224111;1266;139173;-85
2023/11/10 16:21:59;;;;;;;26.20;13.00;;;;;;;10.66;99.90;99184.29;223541;1264;140318;-85
2023/11/10 16:28:01;;;;;;;30.60;14.60;;;;;;;10.62;100.00;99187.64;224013;1266;138860;-84
2023/11/10 16:33:51;;;;;;;;;;;;;;;;;;;;;
2023/11/10 16:39:46;;;;;;;30.90;17.50;;;;;;;10.51;100.00;99186.79;223272;1266;140937;-85
2023/11/10 16:45:51;;;;;;;31.50;18.40;;;;;;;10.48;100.00;99183.04;224187;1265;138979;-84
2023/11/10 16:51:30;;;;;;;;;;;;;;;;;;;;;
2023/11/10 16:57:30;;;;;;;;;;;;;;;;;;;;;
2023/11/10 17:03:33;;;;;;;32.80;18.80;;;;;;;10.34;100.00;99179.08;224030;1266;138803;-84
2023/11/10 17:15:25;;;;;;;;;;;;;;;;;;;;;
2023/11/10 17:21:19;;;;;;;39.50;22.50;;;;;;;10.22;100.00;99168.95;223308;1266;140825;-84
2023/11/10 17:27:21;;;;;;;36.00;20.30;;;;;;;10.18;100.00;99179.59;223985;1266;138818;-84
2023/11/10 17:33:22;;;;;;;34.20;19.70;;;;;;;10.12;100.00;99182.53;223838;1265;139478;-84
2023/11/10 17:39:23;;;;;;;29.80;18.90;;;;;;;10.05;100.00;99189.48;223564;1265;140975;-84
2023/11/10 17:45:24;;;;;;;32.70;19.60;;;;;;;10.00;100.00;99182.92;223954;1265;138803;-85
2023/11/10 17:51:15;;;;;;;35.80;20.50;;;;;;;9.94;100.00;99188.99;223473;1266;140803;-84
2023/11/10 17:57:17;;;;;;;36.90;22.30;;;;;;;9.89;100.00;99194.76;223837;1265;138521;-85
2023/11/10 18:03:18;;;;;;;38.40;20.20;;;;;;;9.83;100.00;99194.00;223720;1266;140485;-83
2023/11/10 18:09:20;;;;;;;32.70;19.80;;;;;;;9.78;100.00;99192.54;223506;1266;142346;-85
2023/11/10 18:15:21;;;;;;;34.50;19.30;;;;;;;9.74;100.00;99190.91;223876;1265;138468;-85
2023/11/10 18:21:12;;;;;;;;;;;;;;;;;;;;;
2023/11/10 18:27:16;;;;;;;31.30;18.60;;;;;;;9.67;100.00;99194.79;223981;1268;138388;-83
2023/11/10 18:33:15;;;;;;;34.90;20.10;;;;;;;9.64;100.00;99202.27;223889;1266;139352;-84
2023/11/10 18:45:16;;;;;;;30.50;17.00;;;;;;;9.52;100.00;99207.66;223909;1268;138540;-85
2023/11/10 18:51:11;;;;;;;31.90;16.90;;;;;;;9.42;100.00;99209.98;223300;1266;140905;-85
2023/11/10 18:56:54;;;;;;;;;;;;;;;;;;;;;
2023/11/10 19:02:56;;;;;;;31.30;17.90;;;;;;;9.19;100.00;99197.58;223395;1266;140028;-85
2023/11/10 19:08:52;;;;;;;30.30;14.60;;;;;;;9.04;100.00;99203.52;223393;1266;140791;-85
2023/11/10 19:14:53;;;;;;;26.20;15.20;;;;;;;8.89;100.00;99201.89;224002;1266;139632;-84
2023/11/10 19:20:55;;;;;;;31.30;16.20;;;;;;;8.79;100.00;99202.08;223379;1265;141262;-85
2023/11/10 19:26:56;;;;;;;26.90;14.10;;;;;;;8.64;100.00;99200.30;224239;1265;138712;-84
2023/11/10 19:32:55;;;;;;;;;;;;;;;;;;;;;
2023/11/10 19:38:58;;;;;;;25.00;13.90;;;;;;;8.36;100.00;99208.77;223400;1266;140526;-84
2023/11/10 19:44:59;;;;;;;33.70;16.20;;;;;;;8.25;100.00;99214.47;223912;1266;138684;-84
2023/11/10 19:51:00;;;;;;;107.10;33.60;;;;;;;8.10;100.00;99212.77;223327;1266;140651;-83
2023/11/10 19:56:44;;;;;;;72.50;29.50;;;;;;;7.88;100.00;99210.70;223923;1266;138669;-83
2023/11/10 20:02:45;;;;;;;;;;;;;;;;;;;;;
2023/11/10 20:08:47;;;;;;;47.60;22.50;;;;;;;7.51;100.00;99221.94;223412;1266;140803;-83
2023/11/10 20:14:28;;;;;;;41.70;20.00;;;;;;;7.36;100.00;99223.75;223963;1266;139354;-83
2023/11/10 20:20:14;;;;;;;59.00;25.60;;;;;;;7.23;100.00;99229.32;223644;1266;140611;-83
2023/11/10 20:26:13;;;;;;;54.90;23.90;;;;;;;7.10;100.00;99224.80;223987;1267;139278;-83
2023/11/10 20:32:14;;;;;;;56.10;27.60;;;;;;;6.96;100.00;99228.54;223358;1267;140460;-83
2023/11/10 20:38:15;;;;;;;42.10;23.20;;;;;;;6.83;100.00;99231.96;223300;1267;140895;-83
2023/11/10 20:50:17;;;;;;;44.00;22.20;;;;;;;6.55;100.00;99227.00;223515;1266;140807;-83
2023/11/10 20:56:18;;;;;;;42.40;24.20;;;;;;;6.44;100.00;99227.53;223931;1267;139118;-83
2023/11/10 21:02:20;;;;;;;37.80;21.40;;;;;;;6.24;100.00;99218.16;223477;1267;140571;-83
2023/11/10 21:08:14;;;;;;;;;;;;;;;;;;;;;
2023/11/10 21:14:15;;;;;;;37.90;21.40;;;;;;;5.97;100.00;99206.43;224078;1266;138787;-83
2023/11/10 21:20:00;;;;;;;39.00;20.50;;;;;;;5.87;100.00;99211.57;223325;1267;140141;-84
2023/11/10 21:26:02;;;;;;;33.40;19.40;;;;;;;5.78;100.00;99208.72;223972;1266;139111;-83
2023/11/10 21:32:03;;;;;;;39.20;19.60;;;;;;;5.68;100.00;99206.34;219283;1266;5354086;-84
2023/11/10 21:37:44;;;;;;;38.90;21.40;;;;;;;5.58;100.00;99204.59;223967;1265;139343;-84
2023/11/10 21:43:36;;;;;;;;;;;;;;;;;;;;;
2023/11/10 21:49:38;;;;;;;38.60;20.90;;;;;;;5.42;100.00;99196.15;223386;1267;140562;-84
2023/11/10 21:55:23;;;;;;;34.00;20.30;;;;;;;5.34;100.00;99186.84;223823;1266;138917;-84
2023/11/10 22:01:17;;;;;;;;;;;;;;;;;;;;;
2023/11/10 22:07:19;;;;;;;45.20;23.00;;;;;;;5.12;100.00;99174.18;224010;1268;138776;-83
2023/11/10 22:13:19;;;;;;;;;;;;;;;;;;;;;
2023/11/10 22:18:43;;;;;;;47.00;23.80;;;;;;;4.94;100.00;99174.19;223439;1266;140679;-83
2023/11/10 22:24:19;;;;;;;51.60;25.30;;;;;;;4.87;100.00;99171.61;223984;1265;138639;-84
2023/11/10 22:30:07;;;;;;;47.30;25.20;;;;;;;4.81;100.00;99176.12;223427;1267;140300;-84
2023/11/10 22:35:58;;;;;;;55.80;26.80;;;;;;;4.72;100.00;99187.83;223972;1264;138604;-84
2023/11/10 22:41:49;;;;;;;47.20;25.70;;;;;;;4.59;100.00;99190.98;223524;1265;141401;-84
2023/11/10 22:47:30;;;;;;;57.70;28.10;;;;;;;4.55;100.00;99188.43;223964;1266;138735;-84
2023/11/10 22:53:21;;;;;;;55.00;27.50;;;;;;;4.51;100.00;99182.68;224098;1265;95795;-84
2023/11/10 22:58:52;;;;;;;52.00;25.50;;;;;;;4.44;100.00;99177.05;223682;1265;140110;-84
2023/11/10 23:04:50;;;;;;;54.50;26.80;;;;;;;4.32;100.00;99171.35;224084;1265;95976;-84
2023/11/10 23:10:41;;;;;;;52.60;28.30;;;;;;;4.26;100.00;99167.27;223436;1266;140348;-84
2023/11/10 23:16:42;;;;;;;184.50;79.00;;;;;;;4.19;100.00;99168.42;223966;1265;139019;-83
2023/11/10 23:22:43;;;;;;;223.60;82.20;;;;;;;4.12;100.00;99170.48;223275;1265;141397;-84
2023/11/10 23:28:26;;;;;;;206.50;76.50;;;;;;;4.03;100.00;99175.30;223401;1265;140919;-85
2023/11/10 23:34:28;;;;;;;72.20;33.60;;;;;;;4.00;100.00;99180.47;223975;1265;138664;-85
2023/11/10 23:46:48;;;;;;;57.70;30.70;;;;;;;3.86;100.00;99177.83;223812;1265;138666;-83
2023/11/10 23:52:49;;;;;;;102.40;39.70;;;;;;;3.81;100.00;99174.92;222717;1271;140111;-83
2023/11/10 23:58:49;;;;;;;;;;;;;;;;;;;;;
